KAQW/AQW METAR and TAF weather

Enter ICAO airport designator
Station Type Date Time Source
KAQW METAR 2018/04/23 10:52 UTC NOAA

KAQW 231052Z AUTO 00000KT 10SM CLR M03/M05 A3050 RMK AO2 SLP333 T10281050


Station Type Date Time Source
KAQW Decoded METAR 2018/04/23 10:52 UTC NOAA

N ADAMS HARRIMAN-AND-WEST, MA, United States (KAQW) 42-42N 073-10W 201M
Apr 23, 2018 - 06:52 AM EDT / 2018.04.23 1052 UTC
Wind: Calm:0
Visibility: 10 mile(s):0
Sky conditions: clear
Temperature: 27.0 F (-2.8 C)
Dew Point: 23.0 F (-5.0 C)
Relative Humidity: 84%
Pressure (altimeter): 30.5 in. Hg (1032 hPa)
ob: KAQW 231052Z AUTO 00000KT 10SM CLR M03/M05 A3050 RMK AO2 SLP333 T10281050
cycle: 11

Station Type Date Time Source
KAQW TAF UTC NOAA

Error!


Example: see airport list